Time;durP1;ratioP1;P1;durP2;ratioP2;P2;SDS_P1;SDS_P2;PMS_P1;PMS_P2;Temp;Humidity;BMP_temperature;BMP_pressure;BME280_temperature;BME280_humidity;BME280_pressure;Samples;Min_cycle;Max_cycle;Signal;HPM_P1;HPM_P2
2021/11/11 00:02:20;;;;;;;2.05;1.42;;;21.20;53.60;;;;;;6226452;28;20026;-65
2021/11/11 00:05:21;;;;;;;1.67;1.30;;;21.20;53.60;;;;;;6244574;28;20422;-65
2021/11/11 00:08:22;;;;;;;1.58;1.40;;;21.20;53.60;;;;;;6235389;28;20026;-65
2021/11/11 00:11:22;;;;;;;1.80;1.45;;;21.20;53.60;;;;;;6220114;28;20480;-65
2021/11/11 00:14:23;;;;;;;1.65;1.45;;;21.20;53.50;;;;;;6219930;28;20041;-64
2021/11/11 00:17:23;;;;;;;1.90;1.60;;;21.20;53.50;;;;;;6224088;28;20030;-63
2021/11/11 00:20:27;;;;;;;1.85;1.50;;;21.20;53.50;;;;;;6269135;28;20071;-66
2021/11/11 00:23:28;;;;;;;1.63;1.30;;;21.20;53.60;;;;;;6259115;28;20041;-65
2021/11/11 00:26:29;;;;;;;1.83;1.60;;;21.20;53.50;;;;;;6253893;28;20032;-65
2021/11/11 00:29:29;;;;;;;1.90;1.55;;;21.20;53.50;;;;;;6244394;28;20033;-66
2021/11/11 00:32:30;;;;;;;1.95;1.60;;;21.20;53.60;;;;;;6243734;28;20120;-65
2021/11/11 00:35:31;;;;;;;1.60;1.30;;;21.20;53.60;;;;;;6244276;28;20024;-65
2021/11/11 00:38:32;;;;;;;1.45;1.30;;;21.20;53.50;;;;;;6242633;28;20029;-65
2021/11/11 00:41:32;;;;;;;1.98;1.65;;;21.20;53.50;;;;;;6246476;28;20103;-65
2021/11/11 00:44:33;;;;;;;1.70;1.50;;;21.20;53.50;;;;;;6268361;28;20419;-63
2021/11/11 00:47:35;;;;;;;1.45;1.30;;;21.20;53.60;;;;;;6258484;28;20034;-65
2021/11/11 00:50:36;;;;;;;1.88;1.55;;;21.20;53.50;;;;;;6243547;28;20116;-65
2021/11/11 00:53:36;;;;;;;2.30;1.77;;;21.20;53.50;;;;;;6225747;28;20037;-65
2021/11/11 00:56:37;;;;;;;1.88;1.55;;;21.20;53.50;;;;;;6220654;28;20036;-64
2021/11/11 00:59:41;;;;;;;1.90;1.48;;;21.20;53.50;;;;;;6268433;28;20029;-66
2021/11/11 01:02:44;;;;;;;4.43;1.42;;;21.20;53.50;;;;;;6250316;28;20024;-65
2021/11/11 01:05:45;;;;;;;3.28;1.73;;;21.20;53.50;;;;;;6219266;28;20530;-64
2021/11/11 01:08:47;;;;;;;1.77;1.33;;;21.20;53.50;;;;;;6232994;28;20033;-65
2021/11/11 01:11:47;;;;;;;1.90;1.55;;;21.20;53.40;;;;;;6243124;28;20025;-65
2021/11/11 01:14:48;;;;;;;1.70;1.40;;;21.20;53.50;;;;;;6264605;28;20036;-65
2021/11/11 01:17:49;;;;;;;2.03;1.40;;;21.20;53.40;;;;;;6267466;28;20510;-65
2021/11/11 01:20:49;;;;;;;2.20;1.33;;;21.20;53.50;;;;;;6267753;28;20036;-64
2021/11/11 01:23:50;;;;;;;1.33;1.20;;;21.20;53.40;;;;;;6243047;28;20026;-64
2021/11/11 01:26:51;;;;;;;1.80;1.50;;;21.20;53.40;;;;;;6226056;28;20025;-65
2021/11/11 01:29:51;;;;;;;2.17;1.63;;;21.20;53.40;;;;;;6243301;28;20040;-64
2021/11/11 01:32:52;;;;;;;1.40;1.30;;;21.20;53.40;;;;;;6242479;28;20029;-65
2021/11/11 01:35:53;;;;;;;1.63;1.42;;;21.20;53.40;;;;;;6242505;28;20125;-63
2021/11/11 01:38:53;;;;;;;2.45;1.67;;;21.20;53.50;;;;;;6242854;28;20442;-66
2021/11/11 01:41:54;;;;;;;1.30;1.20;;;21.20;53.50;;;;;;6247937;28;20053;-65
2021/11/11 01:44:55;;;;;;;3.33;1.27;;;21.20;53.50;;;;;;6267273;28;20061;-65
2021/11/11 01:47:57;;;;;;;1.67;1.30;;;21.20;53.40;;;;;;6244621;28;20033;-64
2021/11/11 01:50:58;;;;;;;1.70;1.27;;;21.20;53.40;;;;;;6217996;28;20362;-64
2021/11/11 01:53:58;;;;;;;1.90;1.45;;;21.20;53.40;;;;;;6246974;28;20022;-65
2021/11/11 01:56:59;;;;;;;2.78;1.50;;;21.20;53.40;;;;;;6245988;28;20087;-65
2021/11/11 02:00:00;;;;;;;1.77;1.38;;;21.20;53.40;;;;;;6267415;28;20028;-65
2021/11/11 02:03:03;;;;;;;1.40;1.30;;;21.20;53.40;;;;;;6244256;28;20026;-64
2021/11/11 02:06:04;;;;;;;2.15;1.38;;;21.20;53.40;;;;;;6218177;28;20021;-64
2021/11/11 02:09:05;;;;;;;1.55;1.38;;;21.20;53.40;;;;;;6252191;28;20033;-65
2021/11/11 02:12:06;;;;;;;2.10;1.30;;;21.20;53.40;;;;;;6264812;28;20071;-65
2021/11/11 02:15:07;;;;;;;1.55;1.30;;;21.20;53.40;;;;;;6242368;28;20022;-64
2021/11/11 02:18:09;;;;;;;1.65;1.45;;;21.20;53.40;;;;;;6241813;28;20566;-65
2021/11/11 02:21:12;;;;;;;1.60;1.30;;;21.20;53.40;;;;;;6242239;28;20025;-65
2021/11/11 02:24:12;;;;;;;2.30;1.33;;;21.20;53.40;;;;;;6242141;28;20021;-64
2021/11/11 02:27:13;;;;;;;3.33;1.67;;;21.20;53.40;;;;;;6243846;28;20029;-65
2021/11/11 02:30:16;;;;;;;2.22;1.60;;;21.20;53.40;;;;;;6247031;28;20071;-65
2021/11/11 02:33:26;;;;;;;1.38;1.27;;;21.20;53.40;;;;;;6265150;28;20217;-65
2021/11/11 02:36:26;;;;;;;1.63;1.48;;;21.20;53.40;;;;;;6268866;28;20104;-65
2021/11/11 02:39:36;;;;;;;1.95;1.40;;;21.20;53.40;;;;;;6246818;28;20025;-64
2021/11/11 02:42:38;;;;;;;2.20;1.23;;;21.20;53.40;;;;;;6235449;28;20034;-64
2021/11/11 02:45:44;;;;;;;2.53;1.73;;;21.20;53.40;;;;;;6222133;28;20033;-65
2021/11/11 02:48:44;;;;;;;1.92;1.30;;;21.20;53.40;;;;;;6249666;28;20549;-64
2021/11/11 02:51:45;;;;;;;1.42;1.27;;;21.20;53.40;;;;;;6269726;28;20035;-64
2021/11/11 02:54:46;;;;;;;1.90;1.63;;;21.20;53.30;;;;;;6271559;28;20028;-63
2021/11/11 02:57:48;;;;;;;1.98;1.50;;;21.20;53.40;;;;;;6270869;28;20017;-64
2021/11/11 03:01:00;;;;;;;2.05;1.50;;;21.20;53.40;;;;;;6271081;28;20092;-65
2021/11/11 03:04:00;;;;;;;2.95;1.95;;;21.20;53.40;;;;;;6269349;28;20021;-65
2021/11/11 03:07:01;;;;;;;1.95;1.50;;;21.20;53.40;;;;;;6270818;28;20029;-65
2021/11/11 03:10:05;;;;;;;1.63;1.40;;;21.20;53.40;;;;;;6244965;28;20060;-66
2021/11/11 03:13:06;;;;;;;2.15;1.45;;;21.20;53.40;;;;;;6253812;28;20055;-65
2021/11/11 03:16:07;;;;;;;1.80;1.50;;;21.20;53.40;;;;;;6270602;28;20037;-65
2021/11/11 03:19:07;;;;;;;1.60;1.42;;;21.20;53.40;;;;;;6240027;28;20172;-65
2021/11/11 03:22:11;;;;;;;2.35;1.52;;;21.20;53.40;;;;;;6221137;28;20041;-65
2021/11/11 03:25:18;;;;;;;2.20;1.40;;;21.20;53.40;;;;;;6244308;28;20069;-65
2021/11/11 03:28:18;;;;;;;1.90;1.45;;;21.20;53.40;;;;;;6245626;28;20025;-65
2021/11/11 03:31:19;;;;;;;1.77;1.35;;;21.20;53.40;;;;;;6247821;28;20049;-65
2021/11/11 03:34:22;;;;;;;1.60;1.40;;;21.20;53.40;;;;;;6270437;28;20029;-65
2021/11/11 03:37:23;;;;;;;1.92;1.33;;;21.20;53.30;;;;;;6259875;28;20039;-65
2021/11/11 03:40:27;;;;;;;1.83;1.65;;;21.10;53.30;;;;;;6244875;28;20594;-65
2021/11/11 03:43:27;;;;;;;1.65;1.40;;;21.20;53.40;;;;;;6235737;28;20385;-65
2021/11/11 03:46:28;;;;;;;2.05;1.60;;;21.20;53.30;;;;;;6220639;28;20026;-65
2021/11/11 03:49:32;;;;;;;2.05;1.60;;;21.20;54.00;;;;;;6220726;28;20472;-64
2021/11/11 03:52:34;;;;;;;2.00;1.45;;;21.10;53.30;;;;;;6237429;28;20068;-65
2021/11/11 03:55:34;;;;;;;1.67;1.48;;;21.20;53.30;;;;;;6268357;28;20413;-64
2021/11/11 03:58:35;;;;;;;2.05;1.67;;;21.20;53.30;;;;;;6243251;28;20068;-63
2021/11/11 04:01:36;;;;;;;2.35;1.63;;;21.10;53.20;;;;;;6219050;28;20395;-65
2021/11/11 04:04:37;;;;;;;1.88;1.60;;;21.20;53.40;;;;;;6244944;28;20540;-65
2021/11/11 04:07:38;;;;;;;1.55;1.27;;;21.20;53.40;;;;;;6238443;28;20037;-65
2021/11/11 04:10:38;;;;;;;1.63;1.48;;;21.10;53.30;;;;;;6220260;28;20032;-64
2021/11/11 04:13:39;;;;;;;1.67;1.40;;;21.10;53.20;;;;;;6219889;28;20139;-65
2021/11/11 04:16:42;;;;;;;1.48;1.23;;;21.10;53.20;;;;;;6220128;28;20034;-65
2021/11/11 04:19:42;;;;;;;1.60;1.33;;;21.10;53.30;;;;;;6238024;28;20010;-65
2021/11/11 04:22:43;;;;;;;1.88;1.52;;;21.10;53.20;;;;;;6245388;28;20045;-65
2021/11/11 04:25:55;;;;;;;2.55;1.80;;;21.10;53.20;;;;;;6269314;28;20036;-65
2021/11/11 04:29:32;;;;;;;1.77;1.48;;;21.10;53.20;;;;;;6244392;28;20054;-65
2021/11/11 04:32:23;;;;;;;1.98;1.58;;;21.10;53.30;;;;;;6242647;28;20060;-65
2021/11/11 04:35:25;;;;;;;2.35;1.67;;;21.10;53.20;;;;;;6242869;28;20094;-65
2021/11/11 04:42:08;;;;;;;1.45;1.30;;;21.10;53.20;;;;;;6244129;28;20021;-64
2021/11/11 04:51:52;;;;;;;1.90;1.60;;;21.10;53.20;;;;;;6267878;28;19984;-65
2021/11/11 05:01:42;;;;;;;2.00;1.75;;;21.10;53.20;;;;;;6268270;28;20339;-65
2021/11/11 05:04:43;;;;;;;1.55;1.40;;;21.10;53.20;;;;;;6268335;28;20070;-64
2021/11/11 05:07:44;;;;;;;1.60;1.40;;;21.10;53.20;;;;;;6267966;28;20033;-65
2021/11/11 05:10:48;;;;;;;1.60;1.50;;;21.10;53.20;;;;;;6268167;28;20032;-65
2021/11/11 05:13:59;;;;;;;2.17;1.50;;;21.10;53.20;;;;;;6288504;28;20371;-65
2021/11/11 05:16:59;;;;;;;2.65;1.42;;;21.10;53.20;;;;;;6264248;28;20036;-65
2021/11/11 05:20:00;;;;;;;2.28;1.70;;;21.10;53.10;;;;;;6288324;28;20078;-65
2021/11/11 05:23:00;;;;;;;2.03;1.60;;;21.10;53.20;;;;;;6288321;28;20039;-65
2021/11/11 05:26:01;;;;;;;1.58;1.40;;;21.10;53.20;;;;;;6287974;28;20017;-66
2021/11/11 05:29:02;;;;;;;1.83;1.50;;;21.10;53.20;;;;;;6264003;28;20539;-65
2021/11/11 05:32:03;;;;;;;1.73;1.38;;;21.10;53.20;;;;;;6263074;28;20641;-66
2021/11/11 05:35:07;;;;;;;1.52;1.30;;;21.10;53.10;;;;;;6263270;28;20025;-65
2021/11/11 05:38:08;;;;;;;2.38;1.58;;;21.10;53.10;;;;;;6263561;28;20454;-66
2021/11/11 05:41:09;;;;;;;2.22;1.77;;;21.10;53.10;;;;;;6262579;28;20052;-64
2021/11/11 05:44:09;;;;;;;1.77;1.35;;;21.10;53.10;;;;;;6260602;28;20496;-68
2021/11/11 05:47:10;;;;;;;2.30;1.38;;;21.10;53.10;;;;;;6261026;28;20025;-67
2021/11/11 05:50:12;;;;;;;2.28;1.60;;;21.10;53.00;;;;;;6261625;28;20128;-65
2021/11/11 05:53:13;;;;;;;2.30;1.60;;;21.10;53.10;;;;;;6275399;28;20402;-66
2021/11/11 05:56:14;;;;;;;1.38;1.23;;;21.10;53.10;;;;;;6287581;28;20075;-66
2021/11/11 05:59:14;;;;;;;2.63;1.70;;;21.10;53.10;;;;;;6284941;28;20051;-67
2021/11/11 06:02:16;;;;;;;2.58;1.55;;;21.10;53.00;;;;;;6272586;28;20254;-68
2021/11/11 06:05:19;;;;;;;2.13;1.50;;;21.10;53.10;;;;;;6286499;28;20565;-65
2021/11/11 06:08:19;;;;;;;1.70;1.40;;;21.10;53.10;;;;;;6287326;28;20124;-68
2021/11/11 06:11:20;;;;;;;2.00;1.42;;;21.10;53.00;;;;;;6287094;28;20033;-65
2021/11/11 06:14:21;;;;;;;1.85;1.40;;;21.10;53.10;;;;;;6266521;28;20060;-66
2021/11/11 06:17:21;;;;;;;1.92;1.52;;;21.10;53.10;;;;;;6262419;28;20017;-65
2021/11/11 06:20:33;;;;;;;2.03;1.60;;;21.20;53.20;;;;;;6263607;28;20471;-68
2021/11/11 06:23:35;;;;;;;1.88;1.30;;;21.10;53.10;;;;;;6254511;28;20095;-66
2021/11/11 06:26:36;;;;;;;2.08;1.60;;;21.10;53.10;;;;;;6255339;28;20029;-68
2021/11/11 06:29:36;;;;;;;1.63;1.35;;;21.10;53.00;;;;;;6244893;28;20029;-67
2021/11/11 06:32:37;;;;;;;1.98;1.48;;;21.10;52.90;;;;;;6256773;28;20033;-68
2021/11/11 06:35:38;;;;;;;2.13;1.70;;;21.20;53.00;;;;;;6267731;28;20032;-68
2021/11/11 06:38:38;;;;;;;1.50;1.27;;;21.20;52.90;;;;;;6268796;28;20025;-67
2021/11/11 06:41:39;;;;;;;2.05;1.70;;;21.20;52.90;;;;;;6269280;28;20032;-68
2021/11/11 06:44:42;;;;;;;1.35;1.25;;;21.20;52.90;;;;;;6268776;28;20406;-68
2021/11/11 06:47:43;;;;;;;1.92;1.40;;;21.20;52.90;;;;;;6269021;28;20052;-68
2021/11/11 06:50:45;;;;;;;1.35;1.25;;;21.20;52.90;;;;;;6268224;28;20663;-69
2021/11/11 06:53:46;;;;;;;1.38;1.17;;;21.20;52.90;;;;;;6268555;28;20090;-68
2021/11/11 06:56:46;;;;;;;2.13;1.58;;;21.20;52.90;;;;;;6268416;28;20371;-68
2021/11/11 06:59:47;;;;;;;1.95;1.60;;;21.20;53.00;;;;;;6257615;28;20088;-67
2021/11/11 07:02:47;;;;;;;1.52;1.25;;;21.20;52.90;;;;;;6251431;28;20025;-68
2021/11/11 07:05:48;;;;;;;3.13;1.50;;;21.20;53.00;;;;;;6249207;28;20033;-68
2021/11/11 07:08:49;;;;;;;2.03;1.52;;;21.20;53.00;;;;;;6248931;28;20029;-68
2021/11/11 07:11:49;;;;;;;2.90;1.70;;;21.20;53.00;;;;;;6245322;28;20153;-68
2021/11/11 07:14:51;;;;;;;1.50;1.35;;;21.20;53.00;;;;;;6247864;28;20079;-69
2021/11/11 07:17:51;;;;;;;2.10;1.50;;;21.20;53.00;;;;;;6246267;28;20057;-68
2021/11/11 07:20:53;;;;;;;1.85;1.30;;;21.20;53.00;;;;;;6246028;28;20394;-67
2021/11/11 07:23:54;;;;;;;1.65;1.35;;;21.20;53.00;;;;;;6259325;28;20028;-68
2021/11/11 07:26:54;;;;;;;1.83;1.50;;;21.20;53.00;;;;;;6269982;28;20507;-70
2021/11/11 07:29:55;;;;;;;1.73;1.35;;;21.20;53.00;;;;;;6262423;28;20395;-67
2021/11/11 07:32:56;;;;;;;2.05;1.63;;;21.20;53.10;;;;;;6260589;28;20021;-68
2021/11/11 07:35:56;;;;;;;1.48;1.20;;;21.20;53.10;;;;;;6269592;28;20116;-69
2021/11/11 07:39:01;;;;;;;1.83;1.40;;;21.20;53.10;;;;;;6269961;28;20021;-67
2021/11/11 07:42:02;;;;;;;2.60;1.50;;;21.20;53.10;;;;;;6270057;28;20048;-67
2021/11/11 07:45:07;;;;;;;1.67;1.52;;;21.20;53.00;;;;;;6270144;28;20486;-69
2021/11/11 07:48:08;;;;;;;1.90;1.50;;;21.20;53.00;;;;;;6269773;28;20113;-68
2021/11/11 07:51:08;;;;;;;2.17;1.63;;;21.20;53.10;;;;;;6270667;28;20024;-67
2021/11/11 07:54:09;;;;;;;2.35;1.60;;;21.20;53.00;;;;;;6247559;28;20475;-68
2021/11/11 07:57:10;;;;;;;2.08;1.70;;;21.20;53.10;;;;;;6250127;28;20108;-68
2021/11/11 08:00:13;;;;;;;2.33;1.33;;;21.20;53.10;;;;;;6269862;28;20082;-67
2021/11/11 08:03:13;;;;;;;2.35;1.73;;;21.20;53.10;;;;;;6268311;28;20025;-67
2021/11/11 08:06:14;;;;;;;1.92;1.63;;;21.20;53.10;;;;;;6269841;28;20036;-69
2021/11/11 08:09:15;;;;;;;2.00;1.58;;;21.20;53.10;;;;;;6250551;28;20029;-67
2021/11/11 08:12:16;;;;;;;2.00;1.50;;;21.20;53.10;;;;;;6244256;28;20049;-70
2021/11/11 08:15:17;;;;;;;1.85;1.33;;;21.20;53.00;;;;;;6243255;28;20469;-68
2021/11/11 08:18:18;;;;;;;1.40;1.20;;;21.20;53.00;;;;;;6253370;28;20036;-68
2021/11/11 08:21:19;;;;;;;1.70;1.40;;;21.20;53.10;;;;;;6269204;28;20402;-67
2021/11/11 08:24:19;;;;;;;1.83;1.60;;;21.20;53.00;;;;;;6251830;28;20609;-68
2021/11/11 08:27:22;;;;;;;2.53;1.80;;;21.20;53.10;;;;;;6266858;28;20095;-68
2021/11/11 08:30:23;;;;;;;1.70;1.45;;;21.20;53.10;;;;;;6257447;28;20029;-67
2021/11/11 08:33:24;;;;;;;1.50;1.20;;;21.20;53.10;;;;;;6263344;28;20036;-67
2021/11/11 08:36:26;;;;;;;1.75;1.38;;;21.20;53.10;;;;;;6269026;28;20040;-68
2021/11/11 08:39:26;;;;;;;1.85;1.38;;;21.20;53.10;;;;;;6269425;28;20390;-67
2021/11/11 08:42:27;;;;;;;2.72;1.60;;;21.20;53.10;;;;;;6268506;28;20068;-68
2021/11/11 08:45:30;;;;;;;2.92;1.50;;;21.20;53.10;;;;;;6268972;28;20032;-69
2021/11/11 08:48:30;;;;;;;1.85;1.40;;;21.20;53.10;;;;;;6268347;28;20341;-70
2021/11/11 08:51:34;;;;;;;2.05;1.45;;;21.20;53.10;;;;;;6268672;28;20036;-67
2021/11/11 08:54:35;;;;;;;1.70;1.35;;;21.20;53.10;;;;;;6268479;28;20040;-69
2021/11/11 08:57:36;;;;;;;2.63;1.52;;;21.20;53.10;;;;;;6267303;28;20021;-68
2021/11/11 09:00:43;;;;;;;2.13;1.52;;;21.20;53.20;;;;;;6268784;28;20063;-67
2021/11/11 09:03:44;;;;;;;2.10;1.33;;;21.20;53.10;;;;;;6268598;28;20048;-68
2021/11/11 09:06:46;;;;;;;1.75;1.40;;;21.20;53.10;;;;;;6268953;28;20029;-67
2021/11/11 09:09:47;;;;;;;1.70;1.23;;;21.20;53.10;;;;;;6268088;28;20029;-68
2021/11/11 09:12:49;;;;;;;2.25;1.30;;;21.20;53.10;;;;;;6263559;28;20407;-67
2021/11/11 09:15:50;;;;;;;2.20;1.60;;;21.20;53.10;;;;;;6242112;28;20021;-68
2021/11/11 09:18:51;;;;;;;2.25;1.63;;;21.20;53.10;;;;;;6243646;28;20495;-68
2021/11/11 09:21:52;;;;;;;2.47;1.40;;;21.20;53.10;;;;;;6243504;28;20099;-69
2021/11/11 09:24:52;;;;;;;1.80;1.50;;;21.20;53.10;;;;;;6264407;28;20029;-69
2021/11/11 09:27:54;;;;;;;2.53;1.55;;;21.20;53.10;;;;;;6267822;28;20029;-69
2021/11/11 09:30:55;;;;;;;1.67;1.35;;;21.20;53.10;;;;;;6253545;28;20465;-68
2021/11/11 09:33:55;;;;;;;2.10;1.50;;;21.20;53.10;;;;;;6267409;28;20133;-68
2021/11/11 09:36:56;;;;;;;1.48;1.17;;;21.20;53.10;;;;;;6268123;28;20028;-67
2021/11/11 09:39:56;;;;;;;1.85;1.25;;;21.20;53.10;;;;;;6268188;28;20079;-68
2021/11/11 09:42:57;;;;;;;1.90;1.58;;;21.20;53.10;;;;;;6256343;28;20029;-68
2021/11/11 09:45:58;;;;;;;1.67;1.55;;;21.20;53.10;;;;;;6243401;28;20022;-68
2021/11/11 09:49:00;;;;;;;1.88;1.42;;;21.20;53.10;;;;;;6242994;28;20025;-67
2021/11/11 09:52:01;;;;;;;2.00;1.45;;;21.20;53.10;;;;;;6248060;28;20021;-67
2021/11/11 09:58:38;;;;;;;1.55;1.30;;;21.20;53.10;;;;;;6253288;28;20025;-69
2021/11/11 10:01:38;;;;;;;1.70;1.42;;;21.20;53.10;;;;;;6247966;28;20040;-67
2021/11/11 10:04:39;;;;;;;1.60;1.30;;;21.20;53.10;;;;;;6272629;28;20031;-69
2021/11/11 10:07:40;;;;;;;2.70;1.45;;;21.20;53.10;;;;;;6270967;28;20033;-67
2021/11/11 10:10:41;;;;;;;2.05;1.42;;;21.20;53.10;;;;;;6256653;28;20049;-69
2021/11/11 10:13:42;;;;;;;1.73;1.35;;;21.20;53.10;;;;;;6245583;28;20038;-68
2021/11/11 10:16:45;;;;;;;2.22;1.48;;;21.20;53.10;;;;;;6256228;28;20040;-69
2021/11/11 10:19:49;;;;;;;1.75;1.40;;;21.20;53.10;;;;;;6270963;28;20438;-67
2021/11/11 10:22:50;;;;;;;1.63;1.25;;;21.20;53.10;;;;;;6270884;28;20479;-68
2021/11/11 10:26:27;;;;;;;2.08;1.42;;;21.20;53.10;;;;;;6271888;28;20079;-68
2021/11/11 10:29:30;;;;;;;2.20;1.45;;;21.20;53.10;;;;;;6269179;28;20441;-68
2021/11/11 10:32:33;;;;;;;1.98;1.50;;;21.20;53.10;;;;;;6257961;28;20040;-68
2021/11/11 10:35:38;;;;;;;1.77;1.42;;;21.20;53.10;;;;;;6271792;28;20067;-69
2021/11/11 10:38:38;;;;;;;2.55;1.55;;;21.20;53.20;;;;;;6250597;28;20168;-68
2021/11/11 10:41:39;;;;;;;2.55;1.45;;;21.20;53.10;;;;;;6250504;28;20386;-68
2021/11/11 10:44:39;;;;;;;1.65;1.30;;;21.20;53.10;;;;;;6271945;28;20036;-69
2021/11/11 10:47:44;;;;;;;1.73;1.30;;;21.20;53.20;;;;;;6260588;28;20112;-67
2021/11/11 10:50:48;;;;;;;1.55;1.42;;;21.20;53.10;;;;;;6247045;28;20043;-69
2021/11/11 10:54:04;;;;;;;1.58;1.33;;;21.20;53.10;;;;;;6265278;28;20124;-67
2021/11/11 10:57:04;;;;;;;1.55;1.45;;;21.20;53.10;;;;;;6270832;28;20385;-68
2021/11/11 11:00:10;;;;;;;2.47;1.40;;;21.20;53.10;;;;;;6271360;28;20288;-70
2021/11/11 11:03:16;;;;;;;1.48;1.27;;;21.20;53.10;;;;;;6271067;28;20083;-69
2021/11/11 11:06:19;;;;;;;1.60;1.40;;;21.20;53.20;;;;;;6269553;28;20098;-68
2021/11/11 11:09:21;;;;;;;1.95;1.38;;;21.20;53.20;;;;;;6267236;28;20402;-68
2021/11/11 11:12:30;;;;;;;2.15;1.35;;;21.20;53.10;;;;;;6245972;28;20514;-69
2021/11/11 11:15:35;;;;;;;1.65;1.30;;;21.20;53.20;;;;;;6220531;28;20022;-68
2021/11/11 11:18:39;;;;;;;2.25;1.17;;;21.20;53.20;;;;;;6220057;28;20026;-68
2021/11/11 11:21:41;;;;;;;1.42;1.17;;;21.20;53.20;;;;;;6221335;28;20041;-68
2021/11/11 11:24:42;;;;;;;1.48;1.17;;;21.20;53.20;;;;;;6264798;28;20021;-68
2021/11/11 11:27:42;;;;;;;1.83;1.10;;;21.20;53.20;;;;;;6245867;28;20080;-69
2021/11/11 11:30:44;;;;;;;2.13;1.52;;;21.20;53.20;;;;;;6245880;28;20057;-68
2021/11/11 11:33:45;;;;;;;1.42;1.27;;;21.20;53.10;;;;;;6267920;28;20393;-68
2021/11/11 11:36:48;;;;;;;1.63;1.13;;;21.20;53.20;;;;;;6270807;28;20021;-67
2021/11/11 11:40:23;;;;;;;1.98;1.33;;;21.20;53.20;;;;;;6270079;28;20025;-68
2021/11/11 11:43:31;;;;;;;1.60;1.10;;;21.20;53.20;;;;;;6258192;28;20397;-71
2021/11/11 11:46:32;;;;;;;3.03;1.65;;;21.20;53.20;;;;;;6268292;28;20021;-67
2021/11/11 11:49:35;;;;;;;2.30;1.17;;;21.20;53.20;;;;;;6247640;28;20018;-69
2021/11/11 11:52:38;;;;;;;1.73;1.25;;;21.30;53.30;;;;;;6229902;28;20372;-68
2021/11/11 11:58:51;;;;;;;1.20;1.10;;;21.30;53.20;;;;;;6263399;28;20359;-69
2021/11/11 12:08:11;;;;;;;1.38;1.17;;;21.30;53.30;;;;;;6269673;28;20035;-69
2021/11/11 12:14:52;;;;;;;1.80;1.40;;;21.30;53.20;;;;;;6263269;28;20572;-67
2021/11/11 12:38:33;;;;;;;1.33;1.15;;;21.30;53.20;;;;;;6269294;28;20032;-68
2021/11/11 12:41:18;;;;;;;1.50;1.30;;;21.30;53.20;;;;;;6268753;28;20080;-68
2021/11/11 12:44:23;;;;;;;1.50;1.30;;;21.30;53.30;;;;;;6268713;28;20100;-69
2021/11/11 12:47:41;;;;;;;1.23;1.13;;;21.30;53.30;;;;;;6259199;28;20097;-71
2021/11/11 12:50:51;;;;;;;1.45;1.00;;;21.30;53.30;;;;;;6244055;28;20045;-68
2021/11/11 12:53:52;;;;;;;2.28;1.30;;;21.30;53.30;;;;;;6242257;28;20057;-68
2021/11/11 12:57:02;;;;;;;2.13;1.48;;;21.30;53.30;;;;;;6247038;28;20025;-67
2021/11/11 13:00:04;;;;;;;1.33;1.10;;;21.30;53.30;;;;;;6268487;28;20101;-68
2021/11/11 13:03:06;;;;;;;1.10;1.00;;;21.30;53.20;;;;;;6268520;28;20031;-68
2021/11/11 13:06:07;;;;;;;1.30;1.10;;;21.30;53.20;;;;;;6269106;28;20033;-67
2021/11/11 13:09:35;;;;;;;1.55;1.20;;;21.30;53.20;;;;;;6266624;28;20116;-68
2021/11/11 13:12:37;;;;;;;1.45;1.20;;;21.30;53.20;;;;;;6245644;28;20114;-67
2021/11/11 13:15:42;;;;;;;1.58;1.10;;;21.30;53.90;;;;;;6242540;28;20029;-68
2021/11/11 13:18:48;;;;;;;1.17;1.08;;;21.30;53.30;;;;;;6242215;28;20073;-68
2021/11/11 13:21:58;;;;;;;1.77;1.27;;;21.30;53.30;;;;;;6241887;28;20036;-68
2021/11/11 14:27:51;;;;;;;2.35;1.30;;;21.30;53.30;;;;;;6223207;28;20028;-68
2021/11/11 16:02:37;;;;;;;1.90;1.30;;;21.30;53.40;;;;;;6222910;28;20038;-74
2021/11/11 16:22:28;;;;;;;7.50;3.20;;;21.20;51.90;;;;;;6246218;28;20022;-71
2021/11/11 16:28:49;;;;;;;7.05;2.60;;;21.20;52.40;;;;;;6246470;28;20033;-70
2021/11/11 16:31:51;;;;;;;3.35;2.35;;;21.30;52.60;;;;;;6245399;28;20025;-72
2021/11/11 16:34:52;;;;;;;3.97;2.30;;;21.30;52.70;;;;;;6245808;28;20387;-71
2021/11/11 16:37:53;;;;;;;5.35;2.30;;;21.30;52.70;;;;;;6258678;28;20021;-71
2021/11/11 16:40:55;;;;;;;4.45;2.22;;;21.30;52.60;;;;;;6269406;28;20025;-70
2021/11/11 16:43:55;;;;;;;3.33;2.00;;;21.30;52.50;;;;;;6270119;28;20036;-71
2021/11/11 16:46:56;;;;;;;3.60;2.33;;;21.30;52.60;;;;;;6265412;28;20394;-70
2021/11/11 16:49:57;;;;;;;4.55;2.28;;;21.30;52.50;;;;;;6244376;28;20029;-71
2021/11/11 16:52:57;;;;;;;4.90;2.45;;;21.30;52.50;;;;;;6245360;28;20035;-70
2021/11/11 16:55:58;;;;;;;2.92;1.90;;;21.30;52.50;;;;;;6244309;28;20120;-70
2021/11/11 16:59:00;;;;;;;4.47;2.17;;;21.30;52.50;;;;;;6245459;28;20024;-71
2021/11/11 17:02:02;;;;;;;3.53;2.15;;;21.30;52.50;;;;;;6245142;28;20053;-71
2021/11/11 17:05:03;;;;;;;4.60;2.20;;;21.30;52.50;;;;;;6244866;28;20021;-71
2021/11/11 17:08:04;;;;;;;2.20;1.85;;;21.30;52.50;;;;;;6244959;28;20505;-70
2021/11/11 17:11:05;;;;;;;5.53;2.20;;;21.30;52.60;;;;;;6245313;28;20029;-71
2021/11/11 17:14:06;;;;;;;3.13;1.85;;;21.30;52.60;;;;;;6243358;28;20069;-70
2021/11/11 17:17:06;;;;;;;2.75;1.88;;;21.30;52.60;;;;;;6241264;28;20629;-71
2021/11/11 17:20:09;;;;;;;3.08;1.67;;;21.30;52.60;;;;;;6242769;28;20052;-71
2021/11/11 17:23:17;;;;;;;4.57;1.90;;;21.30;52.60;;;;;;6240980;28;20083;-71
2021/11/11 17:29:38;;;;;;;2.17;1.52;;;21.30;52.70;;;;;;6267359;28;20402;-71
2021/11/11 17:32:39;;;;;;;1.85;1.60;;;21.30;52.70;;;;;;6266800;28;20035;-71
2021/11/11 17:35:41;;;;;;;2.58;1.63;;;21.30;52.70;;;;;;6265695;28;20025;-71
2021/11/11 17:38:45;;;;;;;3.03;1.90;;;21.30;52.70;;;;;;6245716;28;20020;-71
2021/11/11 17:41:47;;;;;;;2.67;1.73;;;21.30;52.70;;;;;;6247258;28;20478;-71
2021/11/11 17:44:48;;;;;;;3.83;1.55;;;21.30;52.80;;;;;;6265748;28;20690;-71
2021/11/11 17:47:49;;;;;;;2.83;1.85;;;21.30;52.80;;;;;;6266565;28;20023;-71
2021/11/11 17:50:57;;;;;;;2.65;1.80;;;21.30;52.80;;;;;;6265541;28;20025;-71
2021/11/11 17:54:03;;;;;;;2.30;1.60;;;21.30;52.80;;;;;;6245766;28;20026;-71
2021/11/11 17:57:04;;;;;;;2.22;1.40;;;21.30;52.80;;;;;;6240504;28;20294;-72
2021/11/11 18:00:08;;;;;;;2.33;1.58;;;21.30;52.80;;;;;;6241446;28;20391;-71
2021/11/11 18:03:16;;;;;;;2.00;1.50;;;21.30;52.90;;;;;;6228776;28;20030;-71
2021/11/11 18:06:25;;;;;;;2.28;1.55;;;21.30;52.90;;;;;;6216553;28;20483;-72
2021/11/11 18:09:31;;;;;;;2.92;1.83;;;21.30;52.90;;;;;;6235654;28;20022;-71
2021/11/11 18:15:36;;;;;;;2.47;1.67;;;21.30;52.90;;;;;;6266922;28;20454;-71
2021/11/11 18:18:36;;;;;;;1.73;1.60;;;21.30;52.90;;;;;;6266116;28;20021;-71
2021/11/11 18:21:37;;;;;;;1.95;1.50;;;21.30;52.90;;;;;;6269324;28;20025;-71
2021/11/11 18:24:38;;;;;;;1.63;1.20;;;21.30;53.00;;;;;;6268773;28;20017;-70
2021/11/11 18:27:39;;;;;;;2.25;1.52;;;21.30;53.00;;;;;;6260388;28;20031;-67
2021/11/11 18:30:43;;;;;;;3.03;1.42;;;21.30;52.90;;;;;;6256025;28;20028;-69
2021/11/11 18:37:21;;;;;;;2.40;1.48;;;21.30;53.00;;;;;;6227596;28;20042;-68
2021/11/11 18:40:22;;;;;;;2.13;1.63;;;21.30;53.00;;;;;;6243476;28;20541;-67
2021/11/11 18:43:26;;;;;;;2.45;1.42;;;21.30;53.00;;;;;;6261666;28;20024;-67
2021/11/11 18:46:30;;;;;;;1.55;1.13;;;21.30;53.80;;;;;;6267092;28;20121;-67
2021/11/11 18:49:31;;;;;;;2.88;1.45;;;21.30;53.00;;;;;;6268525;28;20091;-67
2021/11/11 18:52:31;;;;;;;2.17;1.55;;;21.30;53.10;;;;;;6268099;28;20039;-67
2021/11/11 18:55:32;;;;;;;2.33;1.42;;;21.30;53.10;;;;;;6248994;28;20022;-67
2021/11/11 18:58:34;;;;;;;1.63;1.35;;;21.30;53.00;;;;;;6243374;28;20669;-67
2021/11/11 19:01:36;;;;;;;2.35;1.67;;;21.30;53.10;;;;;;6243240;28;20022;-68
2021/11/11 19:08:17;;;;;;;2.25;1.30;;;21.30;53.10;;;;;;6241326;28;20033;-69
2021/11/11 19:11:24;;;;;;;1.45;1.23;;;21.30;53.10;;;;;;6266924;28;20020;-69
2021/11/11 19:14:27;;;;;;;1.45;1.23;;;21.30;53.10;;;;;;6268035;28;20083;-69
2021/11/11 19:17:34;;;;;;;1.70;1.30;;;21.30;53.20;;;;;;6261820;28;20022;-69
2021/11/11 19:20:35;;;;;;;1.90;1.48;;;21.30;53.20;;;;;;6244579;28;20040;-68
2021/11/11 19:23:37;;;;;;;2.28;1.50;;;21.30;53.20;;;;;;6253350;28;20034;-69
2021/11/11 19:26:39;;;;;;;2.05;1.40;;;21.30;53.20;;;;;;6242965;28;20439;-71
2021/11/11 19:29:40;;;;;;;1.73;1.55;;;21.30;53.20;;;;;;6209625;28;20158;-70
2021/11/11 19:32:43;;;;;;;2.00;1.30;;;21.30;53.20;;;;;;6206848;28;20040;-69
2021/11/11 19:36:01;;;;;;;2.28;1.20;;;21.30;53.20;;;;;;6199955;28;20038;-67
2021/11/11 19:42:11;;;;;;;2.40;1.27;;;21.30;53.30;;;;;;6207056;28;20041;-68
2021/11/11 19:45:43;;;;;;;1.67;1.30;;;21.30;53.40;;;;;;6211441;28;20026;-68
2021/11/11 19:49:04;;;;;;;4.45;1.30;;;21.30;53.40;;;;;;6194578;28;20022;-69
2021/11/11 19:55:52;;;;;;;9.18;1.23;;;21.30;53.40;;;;;;6211015;28;20030;-69
2021/11/11 19:59:15;;;;;;;6.57;1.60;;;21.30;53.50;;;;;;6182752;28;20034;-69
2021/11/11 20:11:32;;;;;;;8.02;1.40;;;21.30;53.50;;;;;;6217068;28;20364;-69